Data for 05/11/2009

Time Sea-Level Adjusted Pressure Absolute Pressure Temperature Relative Humidity Dew Point   
(mb) (inHg) (mb) (inHg) (C) (F) (%) (C) (F)
00:05 1018 30.06 847 25.01 7.4 45.3 66 1.5 34.7
00:10 1018 30.06 847 25.01 7.4 45.3 67 1.6 34.9
00:15 1018 30.06 847 25.01 7.3 45.2 67 1.6 35
00:20 1018 30.06 847 25.01 7.2 45 67 1.6 34.9
00:25 1018 30.06 847 25.01 7.2 44.9 67 1.6 34.8
00:30 1018 30.06 847 25.01 7.2 44.9 68 1.6 34.9
00:35 1018 30.06 847 25.01 7.1 44.8 68 1.6 34.9
00:40 1018 30.06 847 25.01 7.1 44.7 68 1.6 34.8
00:45 1018 30.06 847 25.01 7 44.5 69 1.6 35
00:50 1018 30.06 847 25.01 6.9 44.4 69 1.5 34.8
00:55 1018 30.06 847 25.01 6.9 44.4 69 1.6 34.8
01:00 1018 30.06 847 25.01 6.8 44.3 69 1.5 34.7
01:05 1018 30.06 847 25.01 6.8 44.3 69 1.6 34.8
01:10 1018 30.06 847 25.01 6.8 44.2 69 1.5 34.8
01:15 1018 30.06 847 25.01 6.8 44.2 69 1.6 34.8
01:20 1018 30.06 847 25.01 6.7 44.1 69 1.5 34.7
01:25 1018 30.06 847 25.01 6.7 44 69 1.4 34.5
01:30 1018 30.06 847 25.01 6.7 44.1 69 1.5 34.6
01:35 1018 30.06 847 25.01 6.6 43.9 70 1.5 34.7
01:40 1018 30.06 847 25.01 6.5 43.6 70 1.5 34.7
01:45 1018 30.06 847 25.01 6.4 43.5 70 1.4 34.5
01:50 1018 30.06 847 25.01 6.3 43.3 71 1.4 34.5
01:55 1018 30.06 847 25.01 6.2 43.2 71 1.4 34.5
02:00 1018 30.06 847 25.01 6.1 43.1 71 1.3 34.4
02:05 1018 30.06 847 25.01 6 42.9 71 1.3 34.3
02:10 1018 30.06 847 25.01 6.1 42.9 71 1.2 34.2
02:15 1018 30.06 847 25.01 5.9 42.6 72 1.2 34.1
02:20 1018 30.06 847 25.01 5.7 42.3 72 1.1 34
02:25 1018 30.06 847 25.01 5.6 42.1 73 1.2 34.1
02:30 1018 30.06 847 25.01 5.6 42.1 73 1.1 34.1
02:35 1018 30.06 847 25.01 5.6 42.1 73 1.2 34.1
02:40 1018 30.06 847 25.01 5.6 42.1 73 1.2 34.2
02:45 1017 30.03 847 25.01 5.6 42 73 1.1 34
02:50 1017 30.03 847 25.01 5.6 42.1 73 1.1 34
02:55 1017 30.03 847 25.01 5.8 42.5 71 1.1 33.9
03:00 1017 30.03 847 25.01 6 42.8 72 1.3 34.3
03:05 1017 30.03 846 24.98 5.8 42.4 73 1.2 34.2
03:10 1017 30.03 846 24.98 5.7 42.3 73 1.2 34.2
03:15 1017 30.03 846 24.98 5.7 42.2 73 1.2 34.1
03:20 1017 30.03 846 24.98 5.7 42.3 72 1.1 34.1
03:25 1017 30.03 846 24.98 5.8 42.5 72 1.1 34
03:30 1017 30.03 846 24.98 5.8 42.5 72 1.1 34
03:35 1017 30.03 846 24.98 5.8 42.5 72 1.2 34.1
03:40 1017 30.03 846 24.98 5.7 42.2 72 1.1 33.9
03:45 1017 30.03 846 24.98 5.7 42.2 72 1.1 33.9
03:50 1017 30.03 846 24.98 5.7 42.3 72 1.1 33.9
03:55 1017 30.03 846 24.98 5.6 42.2 72 1.1 34
04:00 1017 30.03 846 24.98 5.6 42.1 73 1.1 34
04:05 1016 30 846 24.98 5.5 41.9 73 1.2 34.1
04:10 1016 30 846 24.98 5.4 41.7 74 1.1 34
04:15 1016 30 846 24.98 5.4 41.7 74 1.1 33.9
04:20 1017 30.03 846 24.98 5.4 41.6 74 1 33.8
04:25 1017 30.03 846 24.98 5.2 41.4 74 0.9 33.7
04:30 1016 30 846 24.98 5 41 74 0.8 33.5
04:35 1016 30 846 24.98 4.9 40.8 75 0.8 33.4
04:40 1016 30 846 24.98 4.7 40.5 75 0.7 33.2
04:45 1016 30 846 24.98 4.7 40.5 75 0.6 33
04:50 1016 30 845 24.95 4.8 40.7 74 0.6 33
04:55 1016 30 845 24.95 4.8 40.6 74 0.5 32.9
05:00 1016 30 845 24.95 4.8 40.6 74 0.5 33
05:05 1016 30 845 24.95 4.7 40.5 75 0.6 33.1
05:10 1016 30 845 24.95 4.6 40.2 76 0.6 33.1
05:15 1016 30 845 24.95 4.4 40 77 0.7 33.2
05:20 1016 30 845 24.95 4.3 39.8 77 0.7 33.2
05:25 1016 30 845 24.95 4.3 39.7 78 0.8 33.4
05:30 1016 30 845 24.95 4.2 39.5 77 0.5 33
05:35 1016 30 845 24.95 4 39.1 76 0.1 32.3
05:40 1016 30 845 24.95 3.7 38.6 75 -0.3 31.4
05:45 1016 30 845 24.95 3.6 38.4 75 -0.4 31.2
05:50 1016 30 845 24.95 3.5 38.2 75 -0.6 31
05:55 1016 30 845 24.95 3.3 38 75 -0.6 30.9
06:00 1016 30 845 24.95 3.2 37.8 77 -0.5 31.1
06:05 1016 30 845 24.95 3.4 38.1 79 0.1 32.1
06:10 1016 30 845 24.95 3.7 38.7 79 0.4 32.7
06:15 1016 30 845 24.95 3.9 38.9 79 0.5 32.8
06:20 1016 30 845 24.95 4 39.2 78 0.5 32.8
06:25 1016 30 845 24.95 4 39.3 74 -0.2 31.6
06:30 1016 30 845 24.95 3.8 38.9 74 -0.4 31.3
06:35 1016 30 845 24.95 3.6 38.5 73 -0.7 30.8
06:40 1016 30 845 24.95 3.6 38.4 73 -0.8 30.5
06:45 1016 30 845 24.95 3.6 38.4 73 -0.9 30.5
06:50 1016 30 845 24.95 3.5 38.4 73 -0.8 30.5
06:55 1016 30 845 24.95 3.7 38.7 73 -0.7 30.7
07:00 1016 30 845 24.95 4 39.2 72 -0.6 30.9
07:05 1016 30 845 24.95 4.1 39.4 71 -0.6 30.9
07:10 1016 30 845 24.95 4.3 39.7 71 -0.6 30.9
07:15 1015 29.97 845 24.95 4.7 40.4 69 -0.6 30.9
07:20 1015 29.97 845 24.95 5 41 63 -1.5 29.3
07:25 1015 29.97 845 24.95 5.2 41.4 62 -1.4 29.4
07:30 1015 29.97 845 24.95 5.6 42 62 -1.1 30.1
07:35 1015 29.97 845 24.95 5.8 42.5 62 -0.8 30.6
07:40 1015 29.97 845 24.95 6 42.9 63 -0.4 31.3
07:45 1015 29.97 844 24.92 6.1 43 64 -0.1 31.8
07:50 1015 29.97 845 24.95 6.4 43.5 64 0 32.1
07:55 1015 29.97 844 24.92 6.7 44 63 0.1 32.1
08:00 1015 29.97 844 24.92 6.7 44.1 64 0.3 32.6
08:05 1015 29.97 844 24.92 6.9 44.3 62 0.1 32.3
08:10 1015 29.97 844 24.92 7 44.6 63 0.3 32.6
08:15 1015 29.97 844 24.92 7.1 44.8 62 0.3 32.5
08:20 1015 29.97 844 24.92 7.3 45.1 61 0.3 32.5
08:25 1015 29.97 844 24.92 7.6 45.7 59 0 32.1
08:30 1015 29.97 844 24.92 7.8 46 57 -0.1 31.8
08:35 1015 29.97 844 24.92 8.1 46.6 56 -0.2 31.6
08:40 1015 29.97 844 24.92 8.5 47.2 54 -0.2 31.6
08:45 1015 29.97 844 24.92 9.1 48.5 51 -0.5 31.2
08:50 1015 29.97 844 24.92 9 48.2 51 -0.6 30.8
08:55 1015 29.97 844 24.92 9.2 48.5 50 -0.7 30.7
09:00 1015 29.97 844 24.92 9.5 49.1 49 -0.6 30.8
09:05 1015 29.97 844 24.92 9.6 49.2 48 -0.8 30.6
09:10 1015 29.97 844 24.92 9.8 49.6 48 -0.6 31
09:15 1015 29.97 844 24.92 9.7 49.5 54 0.9 33.7
09:20 1015 29.97 844 24.92 9.8 49.7 54 0.9 33.6
09:25 1015 29.97 844 24.92 10 50 53 0.9 33.7
09:30 1015 29.97 844 24.92 10 50.1 54 1.1 34.1
09:35 1015 29.97 844 24.92 10.6 51.1 52 1.1 33.9
09:40 1014 29.94 844 24.92 10.5 50.8 55 1.9 35.4
09:45 1014 29.94 844 24.92 9.3 48.7 58 1.4 34.5
09:50 1014 29.94 843 24.89 10.2 50.3 52 0.7 33.3
09:55 1014 29.94 844 24.92 10.8 51.4 54 1.9 35.3
10:00 1014 29.94 843 24.89 10.2 50.3 57 2 35.7
10:05 1014 29.94 843 24.89 11 51.8 52 1.5 34.7
10:10 1014 29.94 843 24.89 12.2 53.9 49 1.8 35.3
10:15 1014 29.94 843 24.89 12.1 53.9 50 2.2 35.9
10:20 1014 29.94 843 24.89 12.4 54.4 49 2 35.5
10:25 1014 29.94 843 24.89 12.3 54.1 49 1.8 35.3
10:30 1014 29.94 843 24.89 12.1 53.7 50 2.1 35.7
10:35 1014 29.94 843 24.89 12 53.6 50 2.1 35.8
10:40 1014 29.94 843 24.89 11 51.8 54 2.2 36
10:45 1014 29.94 843 24.89 11.3 52.4 50 1.4 34.5
10:50 1014 29.94 843 24.89 11.8 53.2 50 1.8 35.2
10:55 1014 29.94 843 24.89 11.9 53.3 49 1.6 34.8
11:00 1014 29.94 843 24.89 12.1 53.7 49 1.7 35.1
11:05 1014 29.94 843 24.89 12 53.5 48 1.4 34.5
11:10 1014 29.94 843 24.89 12.2 53.9 48 1.5 34.8
11:15 1014 29.94 843 24.89 12.1 53.8 48 1.5 34.8
11:20 1014 29.94 843 24.89 12.4 54.3 47 1.4 34.5
11:25 1014 29.94 843 24.89 12.3 54.2 47 1.4 34.5
11:30 1014 29.94 843 24.89 12 53.7 48 1.3 34.4
11:35 1014 29.94 843 24.89 12.3 54.2 46 1 33.8
11:40 1014 29.94 843 24.89 12.8 55.1 46 1.7 35.1
11:45 1014 29.94 843 24.89 12.6 54.7 45 1.2 34.2
11:50 1014 29.94 843 24.89 12.9 55.1 44 0.8 33.5
11:55 1014 29.94 843 24.89 13.5 56.3 39 -0.1 31.8
12:00 1014 29.94 843 24.89 13.2 55.7 38 -0.8 30.5
12:05 1014 29.94 843 24.89 13.6 56.5 37 -0.9 30.3
12:10 1014 29.94 843 24.89 13.7 56.7 39 -0 32
12:15 1014 29.94 843 24.89 13.7 56.7 40 0.3 32.6
12:20 1014 29.94 843 24.89 14 57.1 36 -0.7 30.7
12:25 1014 29.94 843 24.89 15.2 59.4 32 -1.5 29.4
12:30 1014 29.94 843 24.89 15.3 59.6 31 -1.4 29.5
12:35 1014 29.94 843 24.89 15.7 60.3 29 -2.4 27.7
12:40 1014 29.94 843 24.89 15.7 60.2 27 -3.1 26.3
12:45 1014 29.94 843 24.89 15.1 59.1 31 -1.8 28.7
12:50 1013 29.91 843 24.89 14.8 58.6 32 -1.6 29.1
12:55 1013 29.91 842 24.86 16 60.8 30 -1.4 29.5
13:00 1013 29.91 842 24.86 16.5 61.7 31 -0.6 31
13:05 1013 29.91 842 24.86 15.5 59.9 33 -0.6 30.9
13:10 1013 29.91 842 24.86 16.4 61.5 31 -0.6 30.9
13:15 1013 29.91 842 24.86 16.2 61.2 32 -0.6 31
13:20 1013 29.91 842 24.86 16.4 61.5 31 -0.6 30.8
13:25 1013 29.91 842 24.86 17.6 63.7 28 -1 30.2
13:30 1013 29.91 842 24.86 17.7 63.9 29 -0.3 31.5
13:35 1013 29.91 842 24.86 18.1 64.7 29 0 32
13:40 1013 29.91 842 24.86 17.9 64.3 29 -0 32
13:45 1013 29.91 842 24.86 17.7 63.9 29 -0.5 31.1
13:50 1013 29.91 842 24.86 18.1 64.5 29 -0.1 31.9
13:55 1013 29.91 842 24.86 18.7 65.6 27 -0.5 31.1
14:00 1013 29.91 842 24.86 18.1 64.7 28 -0.3 31.5
14:05 1013 29.91 842 24.86 18.1 64.7 28 -0.3 31.5
14:10 1012 29.88 842 24.86 17.2 62.9 28 -1.2 29.8
14:15 1012 29.88 842 24.86 17.3 63.1 29 -1 30.2
14:20 1012 29.88 841 24.83 17.4 63.3 28 -1 30.2
14:25 1012 29.88 841 24.83 18.4 65.1 26 -1.3 29.7
14:30 1012 29.88 841 24.83 19.4 66.9 25 -1.1 30
14:35 1012 29.88 841 24.83 19.8 67.7 25 -0.6 30.9
14:40 1012 29.88 841 24.83 18.9 66.1 28 0.2 32.3
14:45 1012 29.88 841 24.83 18.6 65.4 25 -1.7 28.9
14:50 1012 29.88 841 24.83 18.6 65.4 25 -1.6 29.1
14:55 1012 29.88 841 24.83 18 64.5 25 -1.9 28.6
15:00 1012 29.88 841 24.83 18.5 65.4 22 -3.6 25.5
15:05 1011 29.85 841 24.83 18.4 65.1 23 -3.1 26.5
15:10 1011 29.85 841 24.83 18.1 64.6 23 -3 26.6
15:15 1012 29.88 841 24.83 17.8 64.1 24 -3.2 26.3
15:20 1012 29.88 841 24.83 17.6 63.6 24 -3 26.6
15:25 1012 29.88 841 24.83 16.6 61.8 28 -1.8 28.8
15:30 1012 29.88 841 24.83 16.7 62 29 -1.3 29.7
15:35 1012 29.88 841 24.83 16.6 61.9 26 -2.8 26.9
15:40 1012 29.88 841 24.83 17 62.5 26 -2.7 27.1
15:45 1011 29.85 841 24.83 17.4 63.4 26 -2.3 27.9
15:50 1011 29.85 840 24.81 18.3 64.9 23 -3.2 26.3
15:55 1011 29.85 840 24.81 17.8 64.1 26 -1.9 28.6
16:00 1011 29.85 840 24.81 17.8 64.1 25 -2.5 27.5
16:05 1011 29.85 840 24.81 17.9 64.1 23 -3.3 26.1
16:10 1011 29.85 840 24.81 17.8 64.1 24 -3 26.6
16:15 1011 29.85 840 24.81 18 64.3 23 -3.5 25.7
16:20 1011 29.85 840 24.81 18 64.4 24 -2.7 27.2
16:25 1011 29.85 840 24.81 17.4 63.4 26 -2.3 27.9
16:30 1011 29.85 840 24.81 17.2 62.9 29 -0.9 30.4
16:35 1011 29.85 840 24.81 16.7 62.1 27 -2 28.4
16:40 1011 29.85 840 24.81 16.6 61.8 29 -1.4 29.5
16:45 1011 29.85 840 24.81 17.1 62.7 29 -0.8 30.5
16:50 1011 29.85 840 24.81 16.6 61.9 28 -1.7 28.9
16:55 1011 29.85 840 24.81 16.8 62.3 28 -1.9 28.6
17:00 1010 29.83 840 24.81 16.8 62.2 28 -1.7 29
17:05 1010 29.83 840 24.81 16.8 62.3 27 -2.3 27.9
17:10 1010 29.83 839 24.78 16.6 61.8 27 -2.3 27.9
17:15 1010 29.83 839 24.78 16.7 62.1 27 -2 28.3
17:20 1010 29.83 839 24.78 17 62.6 27 -1.8 28.8
17:25 1010 29.83 839 24.78 17.2 63 26 -2.3 27.9
17:30 1010 29.83 839 24.78 17.5 63.4 26 -2.3 27.8
17:35 1010 29.83 839 24.78 17.7 63.8 23 -3.4 25.9
17:40 1010 29.83 839 24.78 17.5 63.6 25 -2.8 27
17:45 1010 29.83 839 24.78 17.3 63.1 24 -3.5 25.7
17:50 1010 29.83 839 24.78 17.3 63.2 25 -3 26.5
17:55 1010 29.83 839 24.78 17.7 63.9 23 -3.7 25.4
18:00 1010 29.83 839 24.78 17.8 64 24 -2.8 26.9
18:05 1010 29.83 840 24.81 17.7 63.8 25 -2.5 27.5
18:10 1010 29.83 840 24.81 17.5 63.5 27 -1.8 28.8
18:15 1010 29.83 839 24.78 16.3 61.3 29 -1.7 29
18:20 1010 29.83 839 24.78 15.5 59.9 30 -2 28.5
18:25 1010 29.83 839 24.78 15.6 60 30 -1.8 28.8
18:30 1010 29.83 839 24.78 15.6 60.1 31 -1.5 29.4
18:35 1010 29.83 839 24.78 15.7 60.2 35 0.5 32.9
18:40 1010 29.83 839 24.78 15.3 59.5 42 2.5 36.6
18:45 1010 29.83 840 24.81 15.1 59.1 38 0.9 33.6
18:50 1010 29.83 840 24.81 14.7 58.4 41 1.5 34.7
18:55 1010 29.83 840 24.81 14.7 58.4 36 -0.2 31.6
19:00 1011 29.85 840 24.81 15 59 35 -0 31.9
19:05 1010 29.83 840 24.81 15.1 59.2 38 1 33.8
19:10 1010 29.83 840 24.81 14.9 58.8 33 -1.1 30
19:15 1010 29.83 840 24.81 15.1 59.2 31 -1.8 28.8
19:20 1010 29.83 840 24.81 15.2 59.3 33 -0.9 30.4
19:25 1010 29.83 840 24.81 15.1 59.2 32 -1.2 29.8
19:30 1010 29.83 840 24.81 14.5 58.1 34 -1.2 29.9
19:35 1011 29.85 840 24.81 14.2 57.6 35 -0.9 30.3
19:40 1011 29.85 840 24.81 14.2 57.5 35 -1.2 29.9
19:45 1011 29.85 840 24.81 14.3 57.7 35 -0.9 30.3
19:50 1011 29.85 840 24.81 14.3 57.8 34 -1.4 29.4
19:55 1011 29.85 840 24.81 14.1 57.4 34 -1.3 29.7
20:00 1010 29.83 840 24.81 14 57.1 36 -0.9 30.5
20:05 1010 29.83 840 24.81 13.8 56.8 35 -1.1 29.9
20:10 1011 29.85 840 24.81 13.7 56.6 37 -0.8 30.6
20:15 1011 29.85 840 24.81 13.5 56.3 37 -1 30.2
20:20 1011 29.85 840 24.81 13.4 56.1 37 -0.9 30.4
20:25 1011 29.85 840 24.81 13.2 55.8 39 -0.2 31.7
20:30 1011 29.85 840 24.81 13 55.3 40 -0.1 31.8
20:35 1011 29.85 840 24.81 12.9 55.1 41 -0.1 31.7
20:40 1011 29.85 840 24.81 12.6 54.8 44 0.8 33.5
20:45 1011 29.85 840 24.81 12.2 53.9 47 1.2 34.1
20:50 1011 29.85 840 24.81 11.9 53.5 47 1.1 34
20:55 1011 29.85 840 24.81 11.7 53.1 49 1.3 34.4
21:00 1011 29.85 840 24.81 11.5 52.8 50 1.4 34.6
21:05 1011 29.85 840 24.81 11.5 52.6 52 1.9 35.4
21:10 1011 29.85 840 24.81 11.3 52.4 50 1.2 34.2
21:15 1011 29.85 840 24.81 11.6 52.8 49 1.3 34.4
21:20 1011 29.85 841 24.83 11.7 53 50 1.6 34.9
21:25 1012 29.88 841 24.83 11.8 53.3 45 0.2 32.4
21:30 1012 29.88 841 24.83 12 53.6 41 -0.7 30.7
21:35 1012 29.88 841 24.83 12 53.5 42 -0.5 31.2
21:40 1012 29.88 841 24.83 11.6 52.8 43 -0.4 31.3
21:45 1012 29.88 841 24.83 11.1 52 45 -0.4 31.3
21:50 1012 29.88 841 24.83 10.8 51.5 45 -0.6 31
21:55 1012 29.88 841 24.83 10.8 51.4 45 -0.6 30.9
22:00 1012 29.88 841 24.83 10.8 51.4 45 -0.5 31
22:05 1012 29.88 841 24.83 10.7 51.3 46 -0.4 31.4
22:10 1012 29.88 841 24.83 10.6 51.1 46 -0.4 31.3
22:15 1012 29.88 841 24.83 10.5 50.8 47 -0.3 31.5
22:20 1012 29.88 842 24.86 10.3 50.6 48 -0.3 31.5
22:25 1012 29.88 842 24.86 10.2 50.4 48 -0.2 31.7
22:30 1012 29.88 842 24.86 10.1 50.2 49 -0.1 31.8
22:35 1012 29.88 842 24.86 10 49.9 50 0.1 32.2
22:40 1013 29.91 842 24.86 9.8 49.7 51 0.1 32.2
22:45 1013 29.91 842 24.86 9.8 49.6 51 0.3 32.5
22:50 1013 29.91 842 24.86 9.7 49.5 52 0.4 32.8
22:55 1013 29.91 842 24.86 9.6 49.3 52 0.4 32.7
23:00 1013 29.91 842 24.86 9.6 49.2 53 0.4 32.7
23:05 1013 29.91 842 24.86 9.4 48.8 54 0.6 33.1
23:10 1013 29.91 842 24.86 9.1 48.4 56 0.7 33.3
23:15 1013 29.91 842 24.86 8.8 47.8 57 0.7 33.3
23:20 1013 29.91 842 24.86 8.6 47.5 57 0.6 33
23:25 1013 29.91 842 24.86 8.5 47.4 57 0.5 32.8
23:30 1013 29.91 842 24.86 8.7 47.6 56 0.5 32.8
23:35 1013 29.91 842 24.86 8.6 47.5 57 0.5 32.9
23:40 1013 29.91 842 24.86 8.5 47.2 58 0.7 33.2
23:45 1013 29.91 842 24.86 8.1 46.7 59 0.8 33.4
23:50 1013 29.91 842 24.86 7.7 45.9 62 0.9 33.5
23:55 1013 29.91 842 24.86 7.4 45.3 63 0.9 33.5
24:00 1013 29.91 842 24.86 7.2 45 63 0.6 33